• Join FlightAware (Why Join?)
  • Login
  • US Flag 
11:00AM EDT


 

Airport Tracker/Info


-or-


 

Live Flight TrackerFlight Track Log ✈ JBU1781 ✈ 09-May-2013 ✈ KMCO - MYNN / NAS

Flight Track Log - Related Links

Times and Time Zones

All times are in EDT time to prevent confusion due to time zone crossing. See the JBU1781 flight status page for this flight to view local times or setup timezone preferences in your user account.

Time Position Orientation Groundspeed Altitude Reporting Facility
EDT Latitude Longitude Course Direction KTS MPH feet Rate Location/Type
02:01PM 28.4500 -81.3167 127° Southeast 154 177 500  Level Orlando TRACON
02:02PM 28.4833 -81.2833 41° Northeast 207 238 2,200 2,460 Climbing Orlando TRACON
02:03PM 28.5167 -81.2167 60° Northeast 270 311 5,200 2,820 Climbing Orlando TRACON
02:04PM 28.1416 -80.9688 134° Southeast  Level Estimated
02:04PM 28.5694 -81.1064 61° Northeast 294 338 9,600  Level Miami Center
02:05PM 28.0695 -80.8840 139° Southeast  Level Estimated
02:05PM 28.5219 -81.0217 123° Southeast 266 306 12,500  Level Miami Center
02:06PM 27.9974 -80.7994 127° Southeast  Level Estimated
02:06PM 28.4556 -80.9344 131° Southeast 298 343 14,500  Level Miami Center
02:07PM 28.3831 -80.8419 132° Southeast 352 405 17,300 3,000 Climbing Miami Center
02:08PM 28.3025 -80.7356 131° Southeast 387 445 20,600 2,580 Climbing Miami Center
02:09PM 28.2422 -80.6556 131° Southeast 387 445 22,500 1,200 Climbing Miami Center
02:10PM 28.1675 -80.5589 131° Southeast 393 452 23,000 240 Climbing Miami Center
02:11PM 28.0944 -80.4694 133° Southeast 393 452 23,000  Level Miami Center
02:12PM 28.0136 -80.3658 131° Southeast 393 452 23,000  Level Miami Center
02:13PM 27.9428 -80.2719 130° Southeast 398 458 23,000  Level Miami Center
02:14PM 27.8678 -80.1781 132° Southeast 398 458 23,000  Level Miami Center
02:15PM 27.7986 -80.0939 133° Southeast 398 458 23,000  Level Miami Center
02:16PM 27.7256 -80.0028 132° Southeast 398 458 23,000  Level Miami Center
02:17PM 27.6503 -79.9069 132° Southeast 398 458 23,000  Level Miami Center
02:18PM 27.5753 -79.8042 129° Southeast 393 452 23,000  Level Miami Center
02:19PM 27.5000 -79.7108 132° Southeast 393 452 23,000 -420 Level Miami Center
02:20PM 27.4347 -79.6272 131° Southeast 398 458 22,200 -900 Descending Miami Center
02:21PM 27.3592 -79.5344 133° Southeast 398 458 21,300 -600 Descending Miami Center
02:22PM 27.2775 -79.4319 132° Southeast 393 452 21,000 -180 Descending Miami Center
02:23PM 27.2061 -79.3417 132° Southeast 398 458 21,000  Level Miami Center
02:24PM 27.1303 -79.2489 133° Southeast 392 451 21,000  Level Miami Center
02:25PM 27.0544 -79.1564 133° Southeast 397 457 21,000  Level Miami Center
02:26PM 26.9828 -79.0664 132° Southeast 397 457 21,000  Level Miami Center
02:27PM 26.9089 -78.9742 132° Southeast 397 457 21,000  Level Miami Center
02:28PM 26.8414 -78.8869 131° Southeast 390 449 21,000  Level Miami Center
02:29PM 26.7611 -78.7900 133° Southeast 397 457 21,000  Level Miami Center
02:30PM 26.6892 -78.7028 133° Southeast 394 453 21,000  Level Miami Center
02:31PM 26.6189 -78.6297 137° Southeast 389 448 21,000  Level Miami Center
02:32PM 26.5492 -78.5333 129° Southeast 389 448 21,000  Level Miami Center
02:33PM 26.4750 -78.4442 133° Southeast 389 448 21,000  Level Miami Center
02:34PM 26.4006 -78.3572 134° Southeast 389 448 21,000  Level Miami Center
02:35PM 26.3306 -78.2636 130° Southeast 394 453 21,000  Level Miami Center
02:36PM 26.2561 -78.1725 132° Southeast 394 453 21,000  Level Miami Center
02:37PM 26.1797 -78.0836 134° Southeast 394 453 21,000 -480 Level Miami Center
02:38PM 26.1114 -77.9972 131° Southeast 389 448 20,100 -1,020 Descending Miami Center
02:39PM 26.0408 -77.9156 134° Southeast 376 433 19,000 -1,200 Descending Miami Center
02:40PM 25.9744 -77.8411 135° Southeast 354 407 17,800 -1,200 Descending Miami Center
02:41PM 25.9103 -77.7597 131° Southeast 349 402 16,700 -1,140 Descending Miami Center
02:42PM 25.8458 -77.6831 133° Southeast 349 402 15,600 -1,080 Descending Miami Center
02:43PM 25.7836 -77.6089 133° Southeast 342 394 14,600 -1,200 Descending Miami Center
02:44PM 25.7044 -77.5714 157° South 312 359 13,200 -1,440 Descending Miami Center
02:45PM 25.6186 -77.5778 184° South 300 345 11,800 -1,020 Descending Miami Center
02:46PM 25.5703 -77.6328 226° Southwest 238 274 11,200 -600 Descending Miami Center
02:48PM 25.5092 -77.5483 129° Southeast  Level FlightAware Approximate
02:55PM 25.0390 -77.4662 170° South  Level Estimated
02:56PM 25.0390 -77.4662 170° South  Level Estimated
02:57PM 25.0390 -77.4662 170° South  Level Estimated
02:58PM 25.0390 -77.4662 170° South  Level Estimated
02:59PM 25.0390 -77.4662 170° South  Level Estimated
03:00PM 25.0390 -77.4662 170° South  Level Estimated
03:01PM 25.0390 -77.4662 170° South  Level Estimated
03:02PM 25.0390 -77.4662 170° South  Level Estimated
03:03PM 25.0390 -77.4662 170° South  Level Estimated
03:04PM 25.0390 -77.4662 170° South  Level Estimated
03:05PM 25.0390 -77.4662 170° South  Level Estimated